Time;durP1;ratioP1;P1;durP2;ratioP2;P2;SDS_P1;SDS_P2;PMS_P1;PMS_P2;Temp;Humidity;BMP_temperature;BMP_pressure;BME280_temperature;BME280_humidity;BME280_pressure;Samples;Min_cycle;Max_cycle;Signal;HPM_P1;HPM_P2
2024/02/18 00:02:13;;;;;;;;;;;12.30;56.90;;;;;;5073541;28;20041;-71
2024/02/18 00:04:40;;;;;;;5.45;3.85;;;12.40;57.20;;;;;;5055351;28;19966;-72
2024/02/18 00:07:06;;;;;;;;;;;12.30;57.30;;;;;;5088676;28;20039;-71
2024/02/18 00:09:32;;;;;;;13.85;7.65;;;12.30;56.90;;;;;;5075356;28;19959;-71
2024/02/18 00:11:59;;;;;;;9.38;8.00;;;12.20;57.40;;;;;;5091690;28;20389;-71
2024/02/18 00:14:25;;;;;;;16.42;9.63;;;12.30;57.20;;;;;;5089670;28;20063;-71
2024/02/18 00:16:51;;;;;;;7.82;5.15;;;12.30;58.00;;;;;;5077564;28;20108;-71
2024/02/18 00:19:17;;;;;;;;;;;12.30;58.10;;;;;;5077838;28;20126;-74
2024/02/18 00:21:43;;;;;;;9.07;6.13;;;12.30;58.00;;;;;;5090380;28;20455;-71
2024/02/18 00:24:09;;;;;;;8.70;4.95;;;12.20;58.70;;;;;;5072861;28;20036;-74
2024/02/18 00:26:38;;;;;;;7.03;5.53;;;12.20;58.10;;;;;;5079904;28;20036;-71
2024/02/18 00:29:07;;;;;;;11.02;5.80;;;12.20;58.10;;;;;;5071022;28;20040;-71
2024/02/18 00:31:34;;;;;;;11.38;4.93;;;12.20;58.20;;;;;;5081889;28;20028;-74
2024/02/18 00:34:00;;;;;;;4.57;3.83;;;12.20;58.60;;;;;;5092812;28;20036;-71
2024/02/18 00:36:27;;;;;;;3.35;2.45;;;12.20;58.80;;;;;;5082952;28;20047;-71
2024/02/18 00:38:53;;;;;;;3.47;1.98;;;12.10;59.10;;;;;;5082915;28;20615;-71
2024/02/18 00:41:19;;;;;;;4.55;2.67;;;12.10;59.50;;;;;;5079950;28;20051;-74
2024/02/18 00:43:45;;;;;;;3.70;2.35;;;12.10;59.80;;;;;;5078562;28;20120;-74
2024/02/18 00:46:11;;;;;;;;;;;12.00;59.60;;;;;;5084013;28;20074;-73
2024/02/18 00:48:39;;;;;;;5.05;3.03;;;12.00;59.30;;;;;;5084094;28;19959;-71
2024/02/18 00:51:05;;;;;;;5.80;2.38;;;12.00;59.20;;;;;;5090984;28;20442;-71
2024/02/18 00:53:31;;;;;;;8.15;3.90;;;12.00;59.20;;;;;;5091757;28;20532;-73
2024/02/18 00:55:57;;;;;;;4.22;2.47;;;12.00;59.40;;;;;;5092995;28;20035;-71
2024/02/18 00:58:23;;;;;;;7.05;3.80;;;12.00;59.30;;;;;;5092934;28;20048;-71
2024/02/18 01:00:49;;;;;;;8.45;2.55;;;12.00;59.10;;;;;;5107820;28;20386;-74
2024/02/18 01:03:16;;;;;;;6.05;3.78;;;12.00;59.20;;;;;;5092730;28;20135;-70
2024/02/18 01:05:42;;;;;;;10.63;4.80;;;12.00;59.20;;;;;;5092813;28;20039;-74
2024/02/18 01:08:08;;;;;;;3.15;2.15;;;12.00;59.40;;;;;;5092946;28;20489;-74
2024/02/18 01:10:34;;;;;;;3.67;2.63;;;12.00;59.50;;;;;;5091135;28;20069;-72
2024/02/18 01:13:00;;;;;;;5.43;3.33;;;11.90;59.60;;;;;;5093071;28;20511;-74
2024/02/18 01:15:26;;;;;;;7.63;4.13;;;11.90;59.60;;;;;;5074523;28;20069;-73
2024/02/18 01:17:51;;;;;;;6.15;4.28;;;11.90;59.70;;;;;;5092461;28;20040;-71
2024/02/18 01:20:18;;;;;;;9.88;4.22;;;11.90;59.70;;;;;;5090687;28;20082;-74
2024/02/18 01:22:44;;;;;;;7.93;4.45;;;11.90;59.60;;;;;;5091339;28;20068;-70
2024/02/18 01:25:10;;;;;;;6.47;3.08;;;11.90;59.60;;;;;;5091228;28;20028;-73
2024/02/18 01:27:36;;;;;;;8.35;4.25;;;11.90;59.80;;;;;;5092558;28;20040;-71
2024/02/18 01:30:03;;;;;;;11.52;4.82;;;11.80;60.50;;;;;;5090480;28;20077;-73
2024/02/18 01:32:28;;;;;;;;;;;11.80;60.50;;;;;;5091536;28;20047;-74
2024/02/18 01:34:55;;;;;;;7.97;4.70;;;11.80;60.60;;;;;;5092173;28;19912;-71
2024/02/18 01:37:22;;;;;;;4.88;4.00;;;11.70;60.00;;;;;;5092381;28;20115;-73
2024/02/18 01:39:47;;;;;;;6.97;3.72;;;11.70;60.70;;;;;;5092150;28;20024;-73
2024/02/18 01:42:14;;;;;;;4.38;3.20;;;11.70;60.70;;;;;;5090195;28;20504;-71
2024/02/18 01:44:39;;;;;;;3.85;2.63;;;11.70;60.90;;;;;;5090890;28;20069;-74
2024/02/18 01:47:06;;;;;;;4.22;1.92;;;11.70;61.20;;;;;;5091833;28;20489;-73
2024/02/18 01:49:33;;;;;;;1.42;1.15;;;11.60;61.80;;;;;;5090739;28;20021;-73
2024/02/18 01:52:00;;;;;;;8.57;2.13;;;11.60;61.70;;;;;;5090028;28;20044;-74
2024/02/18 01:57:12;;;;;;;10.27;1.92;;;11.60;61.70;;;;;;5090531;28;20097;-71
2024/02/18 01:59:40;;;;;;;;;;;11.60;61.20;;;;;;5092054;28;20035;-71
2024/02/18 02:02:07;;;;;;;4.70;1.95;;;11.60;61.80;;;;;;5089707;28;19924;-71
2024/02/18 02:04:34;;;;;;;3.00;1.63;;;11.60;61.40;;;;;;5090696;28;20044;-74
2024/02/18 02:07:00;;;;;;;2.35;1.65;;;11.50;61.20;;;;;;5091707;28;20047;-71
2024/02/18 02:09:26;;;;;;;;;;;11.60;61.80;;;;;;5091023;28;20032;-71
2024/02/18 02:11:52;;;;;;;2.08;1.30;;;11.60;61.10;;;;;;5089742;28;19920;-74
2024/02/18 02:14:19;;;;;;;2.33;1.60;;;11.60;61.60;;;;;;5073326;28;20073;-71
2024/02/18 02:16:45;;;;;;;;;;;11.60;61.30;;;;;;5073697;28;20093;-71
2024/02/18 02:19:11;;;;;;;3.60;1.70;;;11.60;62.10;;;;;;5091568;28;19973;-71
2024/02/18 02:21:37;;;;;;;3.85;1.50;;;11.60;62.00;;;;;;5089715;28;20492;-71
2024/02/18 02:24:03;;;;;;;1.13;0.93;;;11.50;62.50;;;;;;5073165;28;20039;-71
2024/02/18 02:26:35;;;;;;;3.88;1.45;;;11.60;62.50;;;;;;5091711;28;20492;-74
2024/02/18 02:29:07;;;;;;;5.47;2.20;;;11.60;62.00;;;;;;5089964;28;20507;-71
2024/02/18 02:31:33;;;;;;;3.72;2.15;;;11.60;62.40;;;;;;5091389;28;20093;-71
2024/02/18 02:33:59;;;;;;;1.60;0.80;;;11.60;62.30;;;;;;5090213;28;20047;-71
2024/02/18 02:36:25;;;;;;;0.63;0.50;;;11.60;62.10;;;;;;5090264;28;20032;-74
2024/02/18 02:38:51;;;;;;;0.70;0.43;;;11.60;61.90;;;;;;5091391;28;20081;-74
2024/02/18 02:41:18;;;;;;;2.50;0.95;;;11.60;61.40;;;;;;5089617;28;20454;-70
2024/02/18 02:43:44;;;;;;;2.30;1.13;;;11.70;61.50;;;;;;5090124;28;20036;-74
2024/02/18 02:46:10;;;;;;;1.77;0.82;;;11.70;61.40;;;;;;5090116;28;20032;-72
2024/02/18 02:48:36;;;;;;;1.65;0.63;;;11.70;61.20;;;;;;5091505;28;20054;-74
2024/02/18 02:51:02;;;;;;;;;;;11.60;61.20;;;;;;5092587;28;20520;-71
2024/02/18 02:53:28;;;;;;;3.30;1.67;;;11.60;61.20;;;;;;5093968;28;19916;-74
2024/02/18 02:55:54;;;;;;;3.47;1.65;;;11.60;61.20;;;;;;5077093;28;20032;-71
2024/02/18 02:58:22;;;;;;;4.63;1.92;;;11.50;61.40;;;;;;5093725;28;20377;-74
2024/02/18 03:00:48;;;;;;;9.02;2.55;;;11.50;61.50;;;;;;5094521;28;20052;-74
2024/02/18 03:03:14;;;;;;;9.00;3.10;;;11.50;61.80;;;;;;5076835;28;20047;-73
2024/02/18 03:05:40;;;;;;;3.28;1.77;;;11.40;61.90;;;;;;5095187;28;20461;-71
2024/02/18 03:08:06;;;;;;;1.40;0.80;;;11.40;61.90;;;;;;5093886;28;20046;-74
2024/02/18 03:10:32;;;;;;;3.65;2.03;;;11.40;62.10;;;;;;5093340;28;20028;-74
2024/02/18 03:12:58;;;;;;;0.52;0.45;;;11.40;62.40;;;;;;5093474;28;20048;-71
2024/02/18 03:15:24;;;;;;;2.28;1.50;;;11.30;62.90;;;;;;5076836;28;20523;-73
2024/02/18 03:17:50;;;;;;;1.73;1.60;;;11.30;63.30;;;;;;5093435;28;20051;-73
2024/02/18 03:20:16;;;;;;;1.92;1.13;;;11.30;63.40;;;;;;5094229;28;20530;-71
2024/02/18 03:22:42;;;;;;;2.22;1.23;;;11.30;63.90;;;;;;5093407;28;20044;-71
2024/02/18 03:25:08;;;;;;;3.03;1.85;;;11.30;63.90;;;;;;5094629;28;20543;-73
2024/02/18 03:27:34;;;;;;;2.22;1.30;;;11.20;63.20;;;;;;5094736;28;20044;-70
2024/02/18 03:30:00;;;;;;;1.13;0.77;;;11.30;64.00;;;;;;5094275;28;20039;-73
2024/02/18 03:32:26;;;;;;;2.80;1.23;;;11.20;63.80;;;;;;5092858;28;20159;-74
2024/02/18 03:34:52;;;;;;;5.75;2.33;;;11.30;63.70;;;;;;5094594;28;20031;-71
2024/02/18 03:37:18;;;;;;;1.98;0.68;;;11.30;63.50;;;;;;5093232;28;20076;-74
2024/02/18 03:39:44;;;;;;;3.67;1.20;;;11.30;63.50;;;;;;5110001;28;20032;-70
2024/02/18 03:42:10;;;;;;;2.05;1.35;;;11.30;63.30;;;;;;5093815;28;20043;-71
2024/02/18 03:44:36;;;;;;;1.95;0.77;;;11.30;63.30;;;;;;5093316;28;20023;-71
2024/02/18 03:47:02;;;;;;;3.67;1.95;;;11.20;63.20;;;;;;5094154;28;20044;-73
2024/02/18 03:49:29;;;;;;;3.53;2.65;;;11.20;63.00;;;;;;5092859;28;20111;-70
2024/02/18 03:51:55;;;;;;;1.63;1.20;;;11.20;63.20;;;;;;5092072;28;20040;-70
2024/02/18 03:54:21;;;;;;;0.75;0.50;;;11.20;63.40;;;;;;5093009;28;20020;-73
2024/02/18 03:56:47;;;;;;;2.20;1.15;;;11.20;63.30;;;;;;5092875;28;20093;-74
2024/02/18 03:59:14;;;;;;;3.35;1.80;;;11.20;63.20;;;;;;5092671;28;20028;-74
2024/02/18 04:01:40;;;;;;;1.70;1.15;;;11.20;62.70;;;;;;5093349;28;20036;-74
2024/02/18 04:04:07;;;;;;;1.23;0.73;;;11.20;63.50;;;;;;5074793;28;20504;-74
2024/02/18 04:06:33;;;;;;;4.40;1.75;;;11.20;63.40;;;;;;5092719;28;20035;-70
2024/02/18 04:08:59;;;;;;;1.25;0.90;;;11.20;63.20;;;;;;5075240;28;20028;-70
2024/02/18 04:11:25;;;;;;;3.38;1.95;;;11.20;63.00;;;;;;5093370;28;20115;-71
2024/02/18 04:13:51;;;;;;;6.40;3.00;;;11.20;63.00;;;;;;5093494;28;20040;-71
2024/02/18 04:16:17;;;;;;;1.10;0.80;;;11.20;63.60;;;;;;5092220;28;20043;-74
2024/02/18 04:18:43;;;;;;;1.13;0.90;;;11.10;63.80;;;;;;5091856;28;20039;-73
2024/02/18 04:21:09;;;;;;;2.13;1.00;;;11.10;63.60;;;;;;5091791;28;20454;-70
2024/02/18 04:23:35;;;;;;;1.50;1.02;;;11.10;63.60;;;;;;5092262;28;20058;-70
2024/02/18 04:26:01;;;;;;;2.15;0.85;;;11.10;63.60;;;;;;5092215;28;20036;-71
2024/02/18 04:28:27;;;;;;;1.55;0.90;;;11.10;63.80;;;;;;5092081;28;20051;-74
2024/02/18 04:30:53;;;;;;;0.22;0.22;;;11.10;63.70;;;;;;5074502;28;20119;-74
2024/02/18 04:33:19;;;;;;;2.08;1.20;;;11.10;63.60;;;;;;5093669;28;20032;-71
2024/02/18 04:35:45;;;;;;;1.88;1.42;;;11.10;63.60;;;;;;5093248;28;20040;-71
2024/02/18 04:38:11;;;;;;;0.43;0.30;;;11.00;63.60;;;;;;5093557;28;20032;-70
2024/02/18 04:40:37;;;;;;;0.45;0.40;;;11.10;63.70;;;;;;5091308;28;20036;-74
2024/02/18 04:43:04;;;;;;;1.08;0.98;;;11.00;63.90;;;;;;5092009;28;20044;-74
2024/02/18 04:45:30;;;;;;;0.55;0.40;;;11.00;63.80;;;;;;5092162;28;20251;-71
2024/02/18 04:47:57;;;;;;;1.25;1.02;;;11.00;63.80;;;;;;5093337;28;20036;-71
2024/02/18 04:50:23;;;;;;;1.42;0.85;;;11.00;63.80;;;;;;5074136;28;20047;-74
2024/02/18 04:52:49;;;;;;;0.88;0.60;;;11.00;63.90;;;;;;5092665;28;20469;-70
2024/02/18 04:55:16;;;;;;;0.63;0.35;;;11.00;64.30;;;;;;5093168;28;20036;-71
2024/02/18 04:57:41;;;;;;;;;;;10.90;64.60;;;;;;5093584;28;20059;-74
2024/02/18 05:00:10;;;;;;;0.55;0.40;;;10.80;64.50;;;;;;5090975;28;19962;-70
2024/02/18 05:02:37;;;;;;;2.03;1.23;;;10.70;63.90;;;;;;5091471;28;20039;-70
2024/02/18 05:05:04;;;;;;;0.88;0.70;;;10.60;64.60;;;;;;5092669;28;20484;-70
2024/02/18 05:07:31;;;;;;;2.25;1.08;;;10.50;64.20;;;;;;5092804;28;20630;-73
2024/02/18 05:09:58;;;;;;;3.08;1.38;;;10.40;65.00;;;;;;5091070;28;20035;-71
2024/02/18 05:12:24;;;;;;;1.65;0.85;;;10.40;65.10;;;;;;5073357;28;20040;-71
2024/02/18 05:14:50;;;;;;;2.92;1.40;;;10.30;65.40;;;;;;5091395;28;20354;-71
2024/02/18 05:17:16;;;;;;;2.88;1.63;;;10.30;65.50;;;;;;5092518;28;20051;-73
2024/02/18 05:19:42;;;;;;;1.33;1.10;;;10.20;65.40;;;;;;5092584;28;20037;-73
2024/02/18 05:22:08;;;;;;;3.92;1.73;;;10.20;65.30;;;;;;5091893;28;20040;-70
2024/02/18 05:24:34;;;;;;;7.95;2.25;;;10.20;65.90;;;;;;5090975;28;20028;-71
2024/02/18 05:27:01;;;;;;;2.42;2.22;;;10.20;65.80;;;;;;5092033;28;20044;-74
2024/02/18 05:29:26;;;;;;;;;;;10.20;66.10;;;;;;5092964;28;20472;-70
2024/02/18 05:31:53;;;;;;;2.85;1.50;;;10.20;66.10;;;;;;5090532;28;20015;-74
2024/02/18 05:34:19;;;;;;;2.95;1.33;;;10.20;65.40;;;;;;5090718;28;20374;-74
2024/02/18 05:36:45;;;;;;;0.85;0.68;;;10.20;66.10;;;;;;5092004;28;20043;-71
2024/02/18 05:39:12;;;;;;;1.30;0.52;;;10.20;66.40;;;;;;5090730;28;20101;-70
2024/02/18 05:41:39;;;;;;;3.00;1.83;;;10.20;65.50;;;;;;5090287;28;20036;-70
2024/02/18 05:44:05;;;;;;;1.48;1.05;;;10.30;65.80;;;;;;5090625;28;20028;-71
2024/02/18 05:46:31;;;;;;;1.83;1.33;;;10.30;65.60;;;;;;5090695;28;20062;-74
2024/02/18 05:48:57;;;;;;;;;;;10.40;64.70;;;;;;5074216;28;20031;-73
2024/02/18 05:51:23;;;;;;;3.38;1.52;;;10.40;65.10;;;;;;5089843;28;20430;-74
2024/02/18 05:53:49;;;;;;;7.40;1.95;;;10.40;65.00;;;;;;5107272;28;20058;-74
2024/02/18 05:56:15;;;;;;;6.28;2.25;;;10.40;65.10;;;;;;5073623;28;20035;-73
2024/02/18 05:58:41;;;;;;;1.30;0.60;;;10.40;65.10;;;;;;5091462;28;20029;-74
2024/02/18 06:01:07;;;;;;;3.30;2.38;;;10.40;65.20;;;;;;5072996;28;20032;-71
2024/02/18 06:03:33;;;;;;;5.68;2.33;;;10.40;65.30;;;;;;5090312;28;20044;-74
2024/02/18 06:05:59;;;;;;;2.05;1.13;;;10.50;65.40;;;;;;5091608;28;20035;-71
2024/02/18 06:08:27;;;;;;;2.13;1.05;;;10.50;65.30;;;;;;5092051;28;20028;-71
2024/02/18 06:10:53;;;;;;;2.70;1.52;;;10.50;65.20;;;;;;5106405;28;20032;-74
2024/02/18 06:13:20;;;;;;;0.88;0.70;;;10.50;65.00;;;;;;5091763;28;20486;-74
2024/02/18 06:15:46;;;;;;;6.95;2.00;;;10.50;65.00;;;;;;5091487;28;20036;-71
2024/02/18 06:18:12;;;;;;;1.83;1.50;;;10.60;65.00;;;;;;5090066;28;20062;-73
2024/02/18 06:20:38;;;;;;;;;;;10.60;64.90;;;;;;5090088;28;20040;-74
2024/02/18 06:23:04;;;;;;;2.17;1.35;;;10.60;64.90;;;;;;5091451;28;19920;-71
2024/02/18 06:25:35;;;;;;;1.63;1.23;;;10.60;64.70;;;;;;5089464;28;20473;-74
2024/02/18 06:28:18;;;;;;;3.10;1.55;;;10.60;64.60;;;;;;5106892;28;20048;-74
2024/02/18 06:30:44;;;;;;;1.38;0.80;;;10.60;64.70;;;;;;5090647;28;20036;-72
2024/02/18 06:33:10;;;;;;;2.60;1.45;;;10.70;64.70;;;;;;5091459;28;20040;-74
2024/02/18 06:35:36;;;;;;;2.63;1.98;;;10.70;64.60;;;;;;5106845;28;20029;-72
2024/02/18 06:38:02;;;;;;;2.38;1.00;;;10.80;65.50;;;;;;5089917;28;20389;-71
2024/02/18 06:40:28;;;;;;;2.22;1.20;;;10.80;64.80;;;;;;5090843;28;20036;-74
2024/02/18 06:42:54;;;;;;;3.85;2.10;;;10.80;64.60;;;;;;5089549;28;20036;-71
2024/02/18 06:45:20;;;;;;;1.83;1.10;;;10.90;64.70;;;;;;5089856;28;20066;-74
2024/02/18 06:47:47;;;;;;;1.70;0.82;;;10.90;64.90;;;;;;5091282;28;20051;-74
2024/02/18 06:50:15;;;;;;;2.10;1.65;;;10.90;65.10;;;;;;5089282;28;20115;-71
2024/02/18 06:52:41;;;;;;;3.38;2.25;;;10.90;64.90;;;;;;5091161;28;20036;-74
2024/02/18 06:55:07;;;;;;;10.57;3.30;;;10.90;65.20;;;;;;5089759;28;20039;-74
2024/02/18 06:57:33;;;;;;;6.82;3.42;;;10.90;64.70;;;;;;5089804;28;20062;-74
2024/02/18 07:00:00;;;;;;;3.25;1.88;;;10.90;65.30;;;;;;5106908;28;20025;-74
2024/02/18 07:02:26;;;;;;;1.60;1.15;;;11.00;65.20;;;;;;5090675;28;20052;-74
2024/02/18 07:04:53;;;;;;;2.70;1.80;;;11.00;65.30;;;;;;5091134;28;20105;-74
2024/02/18 07:07:19;;;;;;;3.15;1.42;;;11.00;65.30;;;;;;5090888;28;20041;-71
2024/02/18 07:09:47;;;;;;;2.20;0.70;;;11.00;65.40;;;;;;5089706;28;20043;-71
2024/02/18 07:12:13;;;;;;;4.47;2.92;;;11.00;65.30;;;;;;5088940;28;20484;-71
2024/02/18 07:14:39;;;;;;;2.70;2.35;;;11.00;65.40;;;;;;5091136;28;20028;-74
2024/02/18 07:17:05;;;;;;;6.05;3.92;;;11.00;65.30;;;;;;5090848;28;20050;-73
2024/02/18 07:19:31;;;;;;;4.43;1.98;;;11.10;66.20;;;;;;5089583;28;20114;-70
2024/02/18 07:21:57;;;;;;;7.97;5.20;;;11.10;65.10;;;;;;5088794;28;20119;-71
2024/02/18 07:24:23;;;;;;;3.10;1.85;;;11.10;65.10;;;;;;5089764;28;20024;-71
2024/02/18 07:26:49;;;;;;;3.70;2.35;;;11.20;64.90;;;;;;5090646;28;20048;-74
2024/02/18 07:29:15;;;;;;;2.00;0.73;;;11.20;64.70;;;;;;5090666;28;20028;-74
2024/02/18 07:31:41;;;;;;;1.50;0.70;;;11.30;65.70;;;;;;5090385;28;20041;-74
2024/02/18 07:34:07;;;;;;;2.25;1.10;;;11.20;64.60;;;;;;5089337;28;20058;-74
2024/02/18 07:36:33;;;;;;;8.98;2.40;;;11.30;64.60;;;;;;5091122;28;20028;-74
2024/02/18 07:38:59;;;;;;;2.40;1.63;;;11.30;64.40;;;;;;5092910;28;20055;-74
2024/02/18 07:41:26;;;;;;;1.20;0.68;;;11.40;64.30;;;;;;5093688;28;20036;-71
2024/02/18 07:43:52;;;;;;;1.40;0.82;;;11.40;64.20;;;;;;5094156;28;20032;-74
2024/02/18 07:46:19;;;;;;;2.25;1.30;;;11.40;64.10;;;;;;5094054;28;20596;-74
2024/02/18 07:48:45;;;;;;;3.22;1.48;;;11.40;63.90;;;;;;5094058;28;20029;-71
2024/02/18 07:51:11;;;;;;;1.38;0.90;;;11.50;63.90;;;;;;5075506;28;20129;-71
2024/02/18 07:53:37;;;;;;;2.17;0.80;;;11.60;63.90;;;;;;5092600;28;20523;-74
2024/02/18 07:56:04;;;;;;;2.78;1.48;;;11.60;63.60;;;;;;5092837;28;20040;-71
2024/02/18 07:58:30;;;;;;;3.60;1.77;;;11.70;63.00;;;;;;5092417;28;20036;-74
2024/02/18 08:00:56;;;;;;;2.20;1.25;;;11.70;63.50;;;;;;5093559;28;20032;-74
2024/02/18 08:03:22;;;;;;;4.88;2.40;;;11.80;64.00;;;;;;5094088;28;20048;-74
2024/02/18 08:05:48;;;;;;;2.25;1.48;;;11.80;62.90;;;;;;5075596;28;20028;-73
2024/02/18 08:08:14;;;;;;;3.85;2.10;;;11.90;63.30;;;;;;5094184;28;20054;-74
2024/02/18 08:10:40;;;;;;;7.68;2.63;;;12.10;63.20;;;;;;5093090;28;20036;-74
2024/02/18 08:13:06;;;;;;;4.32;3.25;;;12.30;62.70;;;;;;5092574;28;20401;-73
2024/02/18 08:15:32;;;;;;;;;;;12.60;62.20;;;;;;5094257;28;20036;-71
2024/02/18 08:17:58;;;;;;;2.20;1.88;;;12.80;62.00;;;;;;5092205;28;19920;-70
2024/02/18 08:20:24;;;;;;;4.60;1.45;;;12.90;61.00;;;;;;5093036;28;20450;-71
2024/02/18 08:22:50;;;;;;;1.48;1.15;;;13.00;60.30;;;;;;5092291;28;20032;-71
2024/02/18 08:25:16;;;;;;;0.80;0.60;;;13.00;60.10;;;;;;5091974;28;20036;-74
2024/02/18 08:27:42;;;;;;;2.17;0.82;;;13.00;59.60;;;;;;5093410;28;20548;-74
2024/02/18 08:30:09;;;;;;;2.30;1.13;;;13.00;59.20;;;;;;5092800;28;20036;-71
2024/02/18 08:35:22;;;;;;;1.42;0.88;;;13.10;59.70;;;;;;5093715;28;20121;-74
2024/02/18 08:37:50;;;;;;;3.28;1.30;;;13.10;58.10;;;;;;5093141;28;20029;-71
2024/02/18 08:40:17;;;;;;;2.35;1.38;;;13.20;57.70;;;;;;5092755;28;20298;-74
2024/02/18 08:42:43;;;;;;;2.20;0.75;;;13.20;57.20;;;;;;5091664;28;20028;-71
2024/02/18 08:45:09;;;;;;;1.85;1.05;;;13.20;57.20;;;;;;5091667;28;20400;-71
2024/02/18 08:47:36;;;;;;;2.15;0.77;;;13.20;56.50;;;;;;5074829;28;20047;-74
2024/02/18 08:50:02;;;;;;;0.80;0.65;;;13.20;56.30;;;;;;5083479;28;20046;-70
2024/02/18 08:52:29;;;;;;;2.22;1.13;;;13.20;56.50;;;;;;5075687;28;20033;-71
2024/02/18 08:54:55;;;;;;;;;;;13.30;56.40;;;;;;5072067;28;20033;-73
2024/02/18 08:57:21;;;;;;;1.00;0.85;;;13.30;55.80;;;;;;5081760;28;19920;-73
2024/02/18 08:59:47;;;;;;;2.13;1.13;;;13.30;55.80;;;;;;5091353;28;20017;-74
2024/02/18 09:02:13;;;;;;;0.95;0.73;;;13.30;55.70;;;;;;5090893;28;20454;-71
2024/02/18 09:04:40;;;;;;;2.10;1.40;;;13.40;55.50;;;;;;5092899;28;20043;-73
2024/02/18 09:07:06;;;;;;;1.30;0.65;;;13.40;55.20;;;;;;5091253;28;20408;-71
2024/02/18 09:09:32;;;;;;;1.52;1.30;;;13.40;55.10;;;;;;5081566;28;20051;-74
2024/02/18 09:12:00;;;;;;;4.18;2.60;;;13.50;54.90;;;;;;5071725;28;20064;-74
2024/02/18 09:14:26;;;;;;;3.45;1.17;;;13.50;54.60;;;;;;5071079;28;20024;-71
2024/02/18 09:16:54;;;;;;;1.17;0.90;;;13.50;53.60;;;;;;5054263;28;20493;-74
2024/02/18 09:19:20;;;;;;;2.78;0.55;;;13.60;53.60;;;;;;5070807;28;20078;-74
2024/02/18 09:21:46;;;;;;;1.70;1.25;;;13.70;53.60;;;;;;5069645;28;20044;-75
2024/02/18 09:24:12;;;;;;;1.73;0.75;;;13.80;53.50;;;;;;5071566;28;20037;-71
2024/02/18 09:26:38;;;;;;;2.17;1.13;;;13.90;53.20;;;;;;5071013;28;20036;-74
2024/02/18 09:29:04;;;;;;;0.88;0.60;;;13.90;53.00;;;;;;5071364;28;20158;-71
2024/02/18 09:31:36;;;;;;;2.55;1.65;;;13.90;52.40;;;;;;5070041;28;20028;-71
2024/02/18 09:34:02;;;;;;;5.35;1.33;;;14.10;51.90;;;;;;5053797;28;20054;-74
2024/02/18 09:36:28;;;;;;;0.95;0.65;;;14.20;51.30;;;;;;5071921;28;20059;-71
2024/02/18 09:38:54;;;;;;;2.17;1.23;;;14.20;51.00;;;;;;5071709;28;20032;-74
2024/02/18 09:41:23;;;;;;;1.50;1.00;;;14.20;50.30;;;;;;5071476;28;20043;-71
2024/02/18 09:43:52;;;;;;;3.13;1.50;;;14.20;50.20;;;;;;5070300;28;20067;-71
2024/02/18 09:46:20;;;;;;;2.78;1.52;;;14.20;50.40;;;;;;5070304;28;20389;-71
2024/02/18 09:48:47;;;;;;;4.47;1.83;;;14.20;50.40;;;;;;5071479;28;20708;-74
2024/02/18 09:51:14;;;;;;;;;;;14.20;50.50;;;;;;5071922;28;20432;-74
2024/02/18 09:53:40;;;;;;;1.50;1.27;;;14.20;50.50;;;;;;5053603;28;19920;-74
2024/02/18 09:56:07;;;;;;;0.60;0.57;;;14.10;50.20;;;;;;5071260;28;20037;-72
2024/02/18 09:58:34;;;;;;;1.35;0.82;;;14.10;49.60;;;;;;5069806;28;20510;-71
2024/02/18 10:01:01;;;;;;;1.13;0.77;;;14.10;49.30;;;;;;5068727;28;20188;-74
2024/02/18 10:03:28;;;;;;;0.50;0.50;;;14.00;49.60;;;;;;5069903;28;20034;-74
2024/02/18 10:05:54;;;;;;;2.13;1.27;;;14.10;49.20;;;;;;5053287;28;20085;-71
2024/02/18 10:08:20;;;;;;;1.38;0.73;;;14.10;49.50;;;;;;5070270;28;20501;-72
2024/02/18 10:10:46;;;;;;;1.20;1.00;;;14.30;49.50;;;;;;5052676;28;20043;-70
2024/02/18 10:13:13;;;;;;;2.72;1.40;;;14.40;48.80;;;;;;5069955;28;20033;-74
2024/02/18 10:15:39;;;;;;;1.15;0.70;;;14.60;47.70;;;;;;5070501;28;20032;-74
2024/02/18 10:18:07;;;;;;;2.33;1.30;;;15.00;47.70;;;;;;5069693;28;20440;-71
2024/02/18 10:20:33;;;;;;;1.80;1.23;;;15.40;47.00;;;;;;5071514;28;20036;-74
2024/02/18 10:22:59;;;;;;;1.27;0.70;;;15.60;46.40;;;;;;5070762;28;20028;-74
2024/02/18 10:25:25;;;;;;;0.63;0.40;;;15.80;46.00;;;;;;5069933;28;20040;-73
2024/02/18 10:27:59;;;;;;;1.75;0.98;;;16.00;45.30;;;;;;5081910;28;20401;-74
2024/02/18 10:30:25;;;;;;;0.57;0.50;;;16.10;44.70;;;;;;5083241;28;20051;-74
2024/02/18 10:32:51;;;;;;;;;;;16.50;44.20;;;;;;5087455;28;20036;-71
2024/02/18 10:35:17;;;;;;;6.85;1.42;;;17.00;41.90;;;;;;5081856;28;20274;-72
2024/02/18 10:37:44;;;;;;;1.83;0.52;;;17.70;41.40;;;;;;5074333;28;20055;-74
2024/02/18 10:40:47;;;;;;;;;;;18.60;38.60;;;;;;5087264;28;20443;-71
2024/02/18 10:43:17;;;;;;;1.70;1.30;;;18.80;38.40;;;;;;5090543;28;19920;-74
2024/02/18 10:45:45;;;;;;;4.05;2.90;;;18.70;37.30;;;;;;5089862;28;20036;-71
2024/02/18 10:48:15;;;;;;;0.68;0.68;;;18.70;36.20;;;;;;5073410;28;20036;-71
2024/02/18 10:50:49;;;;;;;0.52;0.52;;;18.60;35.90;;;;;;5080143;28;20439;-74
2024/02/18 10:53:39;;;;;;;5.55;1.20;;;18.50;35.50;;;;;;5073439;28;20520;-74
2024/02/18 10:56:23;;;;;;;0.80;0.50;;;18.40;36.30;;;;;;5094788;28;20063;-74
2024/02/18 10:59:46;;;;;;;2.45;1.75;;;18.20;36.10;;;;;;5077194;28;20394;-71
2024/02/18 11:02:19;;;;;;;1.88;1.33;;;18.00;36.70;;;;;;5082745;28;20045;-71
2024/02/18 11:04:47;;;;;;;1.08;0.70;;;17.90;36.80;;;;;;5077698;28;20048;-74
2024/02/18 11:07:13;;;;;;;0.35;0.30;;;17.90;37.30;;;;;;5066321;28;20114;-74
2024/02/18 11:09:42;;;;;;;0.30;0.30;;;17.80;35.20;;;;;;5085345;28;20063;-71
2024/02/18 11:12:09;;;;;;;0.50;0.50;;;17.60;36.00;;;;;;5070113;28;20094;-74
2024/02/18 11:14:38;;;;;;;1.40;1.05;;;17.50;35.00;;;;;;5056229;28;20024;-74
2024/02/18 11:17:09;;;;;;;1.95;0.70;;;17.40;35.30;;;;;;5072991;28;20045;-74
2024/02/18 11:19:35;;;;;;;2.00;0.75;;;17.30;35.50;;;;;;5073157;28;20032;-74
2024/02/18 11:22:02;;;;;;;0.85;0.55;;;17.30;35.80;;;;;;5079705;28;20101;-74
2024/02/18 11:24:29;;;;;;;0.20;0.20;;;17.30;35.00;;;;;;5073291;28;20689;-71
2024/02/18 11:26:55;;;;;;;1.42;0.50;;;17.20;36.00;;;;;;5082543;28;20406;-71
2024/02/18 11:29:22;;;;;;;;;;;17.10;35.00;;;;;;5101048;28;20048;-71
2024/02/18 11:31:48;;;;;;;1.65;0.70;;;17.00;35.70;;;;;;5086923;28;20580;-74
2024/02/18 11:34:14;;;;;;;1.27;0.60;;;17.00;35.90;;;;;;5094351;28;20027;-71
2024/02/18 11:36:40;;;;;;;0.52;0.30;;;17.10;36.20;;;;;;5075771;28;20427;-71
2024/02/18 11:39:07;;;;;;;2.33;1.02;;;17.30;35.70;;;;;;5089457;28;20078;-73
2024/02/18 11:41:36;;;;;;;3.65;1.92;;;17.50;33.30;;;;;;5091721;28;20064;-71
2024/02/18 11:44:14;;;;;;;1.52;1.13;;;17.70;33.70;;;;;;5094015;28;20031;-71
2024/02/18 11:46:45;;;;;;;5.82;1.90;;;18.00;33.50;;;;;;5073450;28;20107;-74
2024/02/18 11:49:11;;;;;;;0.95;0.68;;;18.20;33.20;;;;;;5082141;28;20028;-71
2024/02/18 11:51:37;;;;;;;;;;;18.50;32.50;;;;;;5091662;28;20119;-74
2024/02/18 11:54:06;;;;;;;3.08;2.58;;;18.80;32.10;;;;;;5089915;28;19943;-71
2024/02/18 11:56:32;;;;;;;3.40;1.38;;;19.40;31.00;;;;;;5089132;28;20393;-70
2024/02/18 11:58:58;;;;;;;0.50;0.45;;;19.70;31.10;;;;;;5055439;28;20123;-74
2024/02/18 12:01:26;;;;;;;0.60;0.50;;;20.20;30.00;;;;;;5073245;28;20430;-71
2024/02/18 12:03:55;;;;;;;0.70;0.60;;;20.40;29.80;;;;;;5074639;28;20052;-73
2024/02/18 12:06:23;;;;;;;0.60;0.60;;;21.40;29.00;;;;;;5075125;28;20056;-71
2024/02/18 12:08:49;;;;;;;0.35;0.28;;;22.00;27.90;;;;;;5081793;28;20028;-74
2024/02/18 12:11:16;;;;;;;0.80;0.50;;;22.60;26.90;;;;;;5093200;28;20427;-71
2024/02/18 12:13:43;;;;;;;1.95;0.85;;;22.40;27.20;;;;;;5093772;28;20039;-71
2024/02/18 12:16:10;;;;;;;0.70;0.70;;;22.60;26.30;;;;;;5092528;28;20028;-71
2024/02/18 12:18:36;;;;;;;2.72;1.70;;;22.70;26.90;;;;;;5093848;28;20044;-74
2024/02/18 12:21:02;;;;;;;;;;;21.90;26.00;;;;;;5073829;28;20032;-71
2024/02/18 12:23:28;;;;;;;1.75;0.47;;;22.00;26.20;;;;;;5073942;28;20273;-72
2024/02/18 12:25:54;;;;;;;;;;;22.60;26.50;;;;;;5087401;28;20047;-71
2024/02/18 12:28:20;;;;;;;0.98;0.70;;;23.40;25.90;;;;;;5083574;28;19929;-74
2024/02/18 12:30:46;;;;;;;;;;;24.50;24.80;;;;;;5078612;28;20539;-71
2024/02/18 12:33:14;;;;;;;6.37;1.27;;;24.80;23.30;;;;;;5087650;28;19920;-72
2024/02/18 12:35:41;;;;;;;0.85;0.40;;;25.30;22.10;;;;;;5071134;28;20446;-74
2024/02/18 12:38:09;;;;;;;0.55;0.40;;;25.10;22.80;;;;;;5091458;28;20044;-74
2024/02/18 12:40:37;;;;;;;2.13;1.30;;;26.50;21.90;;;;;;5091447;28;20251;-73
2024/02/18 12:43:05;;;;;;;1.50;0.93;;;27.80;19.80;;;;;;5075026;28;20093;-73
2024/02/18 12:45:33;;;;;;;1.27;0.77;;;28.80;19.00;;;;;;5091628;28;20028;-72
2024/02/18 12:48:00;;;;;;;0.20;0.20;;;29.20;18.90;;;;;;5092200;28;20569;-74
2024/02/18 12:50:46;;;;;;;1.08;0.98;;;30.30;18.60;;;;;;5091134;28;20039;-74
2024/02/18 12:53:12;;;;;;;0.80;0.57;;;31.20;17.50;;;;;;5092870;28;20036;-71
2024/02/18 12:55:38;;;;;;;0.38;0.20;;;32.80;16.90;;;;;;5083398;28;20058;-74
2024/02/18 12:58:05;;;;;;;0.90;0.73;;;34.80;14.80;;;;;;5072318;28;20483;-71